Twin Bridges, CA

10:41 PM PDT on October 22, 2014 (GMT -0700)
Lower Gardner Mountain | Change Station
CLOSE
Current Station
Personal Weather Station
Location: South Lake Tahoe, CA
Elevation: 6316 ft
Nearby Weather Stations

Elev 6316 ft 38.92 °N, 120.02 °W | Updated 2 minutes ago

Clear
Clear
47.5 °F
Feels Like 48 °F
N
0.0
Wind Variable Wind from SW

Today
High -- | Low -- °F
--% Chance of Precip.
Yesterday
High -- | Low -- °F
Precip. -- in
7:16 AM 6:11 PM
Waning Crescent, 0% visible
Pressure 30.10 in
Visibility 10.0 miles
Clouds Clear
Windchill 48 °F
Dew Point 28 °F
Humidity 46%
Rainfall 0.00 in
Snow Depth 0 in , 1 in , 0 in
UV 0 out of 12
Pollen 2.20 out of 12
Air Quality Not available.
Flu Activity Sporadic
METAR KTVL 230453Z AUTO 20004KT 10SM CLR 09/M02 A3018 RMK AO2 SLP191 T00891022

More Conditions Fewer Conditions

Pressure 30.10 in
Visibility 10.0 miles
Clouds Clear
Windchill 48 °F
Dew Point 28 °F
Humidity 46%
Rainfall 0.00 in
Snow Depth 0 in , 1 in , 0 in
UV 0 out of 12
Pollen 2.20 out of 12
Air Quality Not available.
Flu Activity Sporadic
METAR KTVL 230453Z AUTO 20004KT 10SM CLR 09/M02 A3018 RMK AO2 SLP191 T00891022

More Conditions Fewer Conditions

10-Day Weather Forecast

Almanac

Astronomy

Oct. 22, 2014 Rise Set
Actual Time 7:16 AM PDT 6:11 PM PDT
Civil Twilight 6:49 AM PDT 6:38 PM PDT
Nautical Twilight 6:18 AM PDT 7:09 PM PDT
Astronomical Twilight 5:47 AM PDT 7:40 PM PDT
Moon 6:03 AM PDT (10/22) 5:40 PM PDT (10/22)
Length of Visible Light 11h 49m
Length of Day
10h 54m
Tomorrow will be 2m 22s shorter.
Waning Crescent, 0% of the Moon is Illuminated
Oct 23
Waning Crescent
Oct 23
New
Oct 30
First Quarter
Nov 6
Full
Nov 14
Last Quarter

Yesterday's Extremes

State Highs State Lows

Community

WunderPhotos

Upload Photos

1,764,188 photos uploaded!

Nearby

Snow Depth

Station Depth Elevation
Fallen Leaf 0 in 6300 ft
Echo Peak 1 in 7800 ft
Hagan's Meadow 0 in 8000 ft
Rubicon #2 1 in 7500 ft
Burnside Lake 1 in 8139 ft

Earthquake Activity

City Distance Mag. Time & Date
Mammoth Lakes, California 119 miles 3.0 11:10 PM PDT
2014-10-20
Minimum magnitude displayed is 2.5.

Coastal Water Temperatures

Place Temperature
No Stations Reporting

Nearby Weather Stations